Hauptseite
METAR-TAF:

METAR-TAF

Flughäfen :

Lüttich, Belgien

Flughafen Lüttich

Breite: 50-39N, Länge: 005-27E, Höhe: 186 m

Beobachtung

Neuester Wetterbericht von vor 26 Minuten, um 08:50 UTC
Wind 8 kt aus West/Südwest, variierte zwischen Süd/Südwest und West
Temperatur 14°C
Luftfeuchtigkeit 72%
Luftdruck 1016 hPa
Sichtweite 10 km oder mehr
Leicht bewölkt in der Höhe von 1800 ft

METAR: EBLG 230850Z 24008KT 210V280 9999 FEW018 14/09 Q1016 NOSIG

Zeit: 11:16 (09:16 UTC)

Prognose

Neuester Wetterbericht von vor 3 Stunden und 56 Minuten, um 05:20 UTC
Gültige Prognose vom 23 um 06 UTC bis 24 um 12 UTC
Wind 8 kt aus West
Sichtweite 10 km oder mehr
Leicht bewölkt in der Höhe von 3000 ft

TAF: EBLG 230520Z 2306/2412 26008KT 9999 FEW030

Wetterbeobachtungen und Prognosen von mehr als 4000 Flughäfen (METAR und TAF Bericht).

Die verfügbaren Stationen werden durch gelbe und rote Markierungen auf der Karte dargestellt.

Führen Sie die Maus auf sie, um den Namen der Station zu sehen.

Darauf klicken, um die Beobachtung von Wetterbeobachtungen und Prognosen zu sehen.

Um die Karte zu ändern : klicken Sie auf den grünen Tasten mit einem schwarzen Kreuz Zum Vergrößern, auf den grünen Button mit einem Gedankenstrich zu verkleinern, oder auf die grünen Pfeile für benachbarte Karten.


METAR-TAF: